Time;durP1;ratioP1;P1;durP2;ratioP2;P2;SDS_P1;SDS_P2;PMS_P1;PMS_P2;Temp;Humidity;BMP_temperature;BMP_pressure;BME280_temperature;BME280_humidity;BME280_pressure;Samples;Min_cycle;Max_cycle;Signal;HPM_P1;HPM_P2
2022/04/11 00:01:07;;;;;;;11.02;7.43;;;;;;;;;;5074398;28;20029;-77
2022/04/11 00:03:33;;;;;;;7.18;5.40;;;;;;;;;;5041131;28;20033;-78
2022/04/11 00:05:59;;;;;;;10.20;6.40;;;;;;;;;;5057353;28;20028;-77
2022/04/11 00:08:25;;;;;;;7.63;5.20;;;;;;;;;;5075419;28;20028;-77
2022/04/11 00:10:51;;;;;;;7.43;5.53;;;;;;;;;;5053627;28;20027;-78
2022/04/11 00:13:17;;;;;;;7.95;5.68;;;;;;;;;;5062366;28;20048;-78
2022/04/11 00:15:43;;;;;;;10.73;3.95;;;;;;;;;;5074805;28;20382;-78
2022/04/11 00:18:09;;;;;;;11.88;6.22;;;;;;;;;;5074773;28;20066;-78
2022/04/11 00:20:36;;;;;;;9.75;5.28;;;;;;;;;;5075521;28;20035;-77
2022/04/11 00:23:04;;;;;;;11.00;5.05;;;;;;;;;;5057048;28;20078;-77
2022/04/11 00:25:30;;;;;;;9.43;5.88;;;;;;;;;;5057098;28;20491;-77
2022/04/11 00:27:56;;;;;;;7.03;4.28;;;;;;;;;;5071756;28;20063;-79
2022/04/11 00:30:22;;;;;;;12.65;5.45;;;;;;;;;;5040668;28;20071;-80
2022/04/11 00:32:48;;;;;;;7.32;5.25;;;;;;;;;;5055049;28;20051;-80
2022/04/11 00:35:14;;;;;;;8.23;5.40;;;;;;;;;;5065771;28;20023;-79
2022/04/11 00:37:41;;;;;;;10.70;4.93;;;;;;;;;;5057018;28;20101;-77
2022/04/11 00:40:08;;;;;;;9.23;5.15;;;;;;;;;;5074659;28;20142;-78
2022/04/11 00:42:34;;;;;;;8.13;6.28;;;;;;;;;;5053070;28;20412;-77
2022/04/11 00:45:00;;;;;;;9.70;4.65;;;;;;;;;;5067857;28;20483;-77
2022/04/11 00:47:27;;;;;;;8.52;4.20;;;;;;;;;;5056776;28;20024;-76
2022/04/11 00:49:59;;;;;;;8.15;5.55;;;;;;;;;;5055909;28;20054;-76
2022/04/11 00:52:26;;;;;;;13.63;5.97;;;;;;;;;;5056433;28;20403;-77
2022/04/11 00:54:52;;;;;;;8.32;5.47;;;;;;;;;;5074409;28;20027;-77
2022/04/11 00:57:19;;;;;;;8.35;4.82;;;;;;;;;;5056582;28;20444;-76
2022/04/11 00:59:45;;;;;;;8.65;6.13;;;;;;;;;;5056496;28;20027;-76
2022/04/11 01:02:11;;;;;;;12.57;6.60;;;;;;;;;;5056295;28;20047;-76
2022/04/11 01:04:37;;;;;;;10.20;6.43;;;;;;;;;;5052731;28;20070;-77
2022/04/11 01:07:03;;;;;;;10.23;6.15;;;;;;;;;;5052726;28;20369;-77
2022/04/11 01:09:29;;;;;;;7.97;5.72;;;;;;;;;;5052767;28;20376;-76
2022/04/11 01:11:56;;;;;;;7.35;4.72;;;;;;;;;;5043953;28;20087;-76
2022/04/11 01:14:22;;;;;;;5.18;4.05;;;;;;;;;;5073230;28;20124;-79
2022/04/11 01:16:51;;;;;;;8.23;5.47;;;;;;;;;;5056129;28;20051;-78
2022/04/11 01:19:18;;;;;;;7.03;4.63;;;;;;;;;;5052627;28;20071;-76
2022/04/11 01:21:47;;;;;;;7.85;4.97;;;;;;;;;;5054160;28;20037;-77
2022/04/11 01:24:13;;;;;;;9.38;5.22;;;;;;;;;;5055798;28;20098;-76
2022/04/11 01:26:40;;;;;;;9.27;5.53;;;;;;;;;;5056011;28;20418;-75
2022/04/11 01:29:08;;;;;;;8.38;5.25;;;;;;;;;;5074105;28;20108;-76
2022/04/11 01:31:34;;;;;;;9.48;5.32;;;;;;;;;;5074111;28;20040;-75
2022/04/11 01:34:00;;;;;;;7.13;5.68;;;;;;;;;;5055942;28;20027;-76
2022/04/11 01:36:26;;;;;;;6.57;4.65;;;;;;;;;;5055947;28;20073;-77
2022/04/11 01:38:52;;;;;;;8.90;5.35;;;;;;;;;;5073433;28;20023;-76
2022/04/11 01:41:20;;;;;;;10.73;6.20;;;;;;;;;;5052091;28;20041;-76
2022/04/11 01:43:46;;;;;;;7.05;4.13;;;;;;;;;;5055432;28;20042;-75
2022/04/11 01:46:12;;;;;;;6.55;3.95;;;;;;;;;;5074002;28;20021;-76
2022/04/11 01:48:38;;;;;;;7.20;4.13;;;;;;;;;;5073612;28;20023;-76
2022/04/11 01:51:04;;;;;;;7.00;3.85;;;;;;;;;;5055133;28;20059;-76
2022/04/11 01:53:30;;;;;;;7.55;4.68;;;;;;;;;;5073569;28;20049;-77
2022/04/11 01:55:56;;;;;;;6.93;4.85;;;;;;;;;;5073387;28;20021;-76
2022/04/11 01:58:22;;;;;;;11.80;5.05;;;;;;;;;;5054686;28;20020;-76
2022/04/11 02:00:48;;;;;;;7.90;4.97;;;;;;;;;;5054766;28;20028;-76
2022/04/11 02:03:15;;;;;;;7.47;4.35;;;;;;;;;;5052076;28;20052;-76
2022/04/11 02:05:41;;;;;;;7.15;5.13;;;;;;;;;;5048267;28;20488;-76
2022/04/11 02:08:10;;;;;;;6.38;4.85;;;;;;;;;;5055114;28;20089;-79
2022/04/11 02:10:36;;;;;;;6.85;4.07;;;;;;;;;;5073051;28;20021;-79
2022/04/11 02:13:02;;;;;;;6.78;4.60;;;;;;;;;;5072089;28;20044;-78
2022/04/11 02:15:28;;;;;;;6.47;4.63;;;;;;;;;;5054162;28;20357;-77
2022/04/11 02:17:54;;;;;;;9.00;4.70;;;;;;;;;;5072823;28;20031;-76
2022/04/11 02:20:20;;;;;;;11.48;5.35;;;;;;;;;;5054300;28;20024;-78
2022/04/11 02:22:46;;;;;;;5.90;3.63;;;;;;;;;;5072306;28;20104;-76
2022/04/11 02:25:13;;;;;;;5.68;3.28;;;;;;;;;;5072869;28;20032;-77
2022/04/11 02:27:39;;;;;;;6.50;3.40;;;;;;;;;;5054564;28;20129;-78
2022/04/11 02:30:06;;;;;;;9.18;4.60;;;;;;;;;;5054836;28;20024;-76
2022/04/11 02:32:32;;;;;;;5.65;3.55;;;;;;;;;;5072458;28;20031;-76
2022/04/11 02:34:58;;;;;;;5.82;4.25;;;;;;;;;;5072676;28;20112;-77
2022/04/11 02:37:24;;;;;;;5.68;3.50;;;;;;;;;;5072827;28;20476;-77
2022/04/11 02:39:50;;;;;;;9.05;5.40;;;;;;;;;;5072863;28;20012;-75
2022/04/11 02:42:22;;;;;;;9.68;5.00;;;;;;;;;;5053520;28;20148;-78
2022/04/11 02:44:49;;;;;;;7.45;4.88;;;;;;;;;;5072447;28;20155;-76
2022/04/11 02:47:15;;;;;;;5.60;3.63;;;;;;;;;;5072462;28;20013;-76
2022/04/11 02:49:41;;;;;;;7.03;4.13;;;;;;;;;;5053928;28;20905;-77
2022/04/11 02:52:07;;;;;;;8.52;5.28;;;;;;;;;;5072204;28;20487;-76
2022/04/11 02:54:33;;;;;;;5.25;3.30;;;;;;;;;;5054510;28;20376;-76
2022/04/11 02:56:59;;;;;;;7.97;5.07;;;;;;;;;;5072027;28;20454;-76
2022/04/11 02:59:25;;;;;;;7.93;4.20;;;;;;;;;;5054403;28;20022;-76
2022/04/11 03:01:51;;;;;;;10.40;4.72;;;;;;;;;;5072258;28;20033;-76
2022/04/11 03:04:17;;;;;;;6.07;4.57;;;;;;;;;;5053926;28;20059;-77
2022/04/11 03:06:43;;;;;;;10.50;4.35;;;;;;;;;;5072107;28;20055;-77
2022/04/11 03:09:09;;;;;;;12.15;4.68;;;;;;;;;;5054108;28;20056;-76
2022/04/11 03:11:35;;;;;;;8.57;4.43;;;;;;;;;;5054067;28;20369;-76
2022/04/11 03:14:01;;;;;;;6.15;4.72;;;;;;;;;;5071476;28;20028;-77
2022/04/11 03:16:28;;;;;;;8.20;5.55;;;;;;;;;;5053823;28;20029;-77
2022/04/11 03:18:54;;;;;;;9.05;5.00;;;;;;;;;;5053774;28;20387;-77
2022/04/11 03:21:20;;;;;;;33.13;18.75;;;;;;;;;;5053803;28;20051;-75
2022/04/11 03:23:46;;;;;;;21.98;15.30;;;;;;;;;;5054012;28;20467;-76
2022/04/11 03:26:12;;;;;;;19.08;11.63;;;;;;;;;;5053478;28;20032;-76
2022/04/11 03:28:38;;;;;;;10.35;6.25;;;;;;;;;;5053950;28;20029;-75
2022/04/11 03:31:04;;;;;;;8.27;4.60;;;;;;;;;;5053781;28;20051;-77
2022/04/11 03:33:30;;;;;;;9.40;5.22;;;;;;;;;;5053734;28;20044;-76
2022/04/11 03:35:56;;;;;;;12.15;5.13;;;;;;;;;;5070587;28;20027;-77
2022/04/11 03:38:22;;;;;;;11.65;5.78;;;;;;;;;;5071501;28;20020;-77
2022/04/11 03:40:48;;;;;;;7.63;5.47;;;;;;;;;;5053673;28;20486;-77
2022/04/11 03:43:14;;;;;;;12.55;8.20;;;;;;;;;;5071460;28;20047;-76
2022/04/11 03:45:40;;;;;;;9.23;6.15;;;;;;;;;;5053310;28;20121;-77
2022/04/11 03:48:06;;;;;;;9.80;6.07;;;;;;;;;;5053734;28;20020;-77
2022/04/11 03:50:32;;;;;;;8.77;5.60;;;;;;;;;;5053628;28;20048;-78
2022/04/11 03:52:58;;;;;;;9.93;4.63;;;;;;;;;;5053606;28;20024;-76
2022/04/11 03:55:25;;;;;;;10.68;5.57;;;;;;;;;;5053629;28;20021;-76
2022/04/11 03:57:51;;;;;;;10.88;6.25;;;;;;;;;;5071537;28;20094;-76
2022/04/11 04:00:17;;;;;;;9.63;5.70;;;;;;;;;;5070475;28;20021;-76
2022/04/11 04:02:44;;;;;;;7.32;4.25;;;;;;;;;;5071149;28;20044;-77
2022/04/11 04:05:10;;;;;;;12.25;7.13;;;;;;;;;;5063226;28;20021;-76
2022/04/11 04:07:36;;;;;;;10.07;6.57;;;;;;;;;;5070721;28;20103;-78
2022/04/11 04:10:03;;;;;;;10.10;6.50;;;;;;;;;;5052936;28;20047;-80
2022/04/11 04:12:29;;;;;;;9.25;6.60;;;;;;;;;;5053051;28;20479;-83
2022/04/11 04:14:55;;;;;;;20.60;11.13;;;;;;;;;;5052646;28;20522;-82
2022/04/11 04:17:21;;;;;;;27.27;12.77;;;;;;;;;;5052809;28;20024;-84
2022/04/11 04:19:47;;;;;;;29.30;13.95;;;;;;;;;;5071054;28;20092;-84
2022/04/11 04:22:13;;;;;;;31.25;17.70;;;;;;;;;;5071136;28;20029;-83
2022/04/11 04:24:40;;;;;;;33.00;16.70;;;;;;;;;;5052824;28;20032;-81
2022/04/11 04:27:07;;;;;;;34.45;15.90;;;;;;;;;;5053002;28;20025;-85
2022/04/11 04:29:33;;;;;;;16.15;9.98;;;;;;;;;;5071045;28;20019;-85
2022/04/11 04:31:59;;;;;;;27.23;11.63;;;;;;;;;;5071139;28;20048;-77
2022/04/11 04:34:25;;;;;;;46.35;15.45;;;;;;;;;;5071278;28;20017;-78
2022/04/11 04:36:52;;;;;;;23.10;11.50;;;;;;;;;;5053256;28;20017;-78
2022/04/11 04:39:18;;;;;;;30.05;13.57;;;;;;;;;;5071192;28;20021;-77
2022/04/11 04:41:44;;;;;;;23.15;11.60;;;;;;;;;;5070859;28;20041;-77
2022/04/11 04:44:10;;;;;;;29.98;15.90;;;;;;;;;;5070988;28;20100;-76
2022/04/11 04:46:37;;;;;;;21.10;11.95;;;;;;;;;;5056204;28;20107;-77
2022/04/11 04:49:03;;;;;;;27.05;12.73;;;;;;;;;;5049154;28;20025;-77
2022/04/11 04:51:29;;;;;;;24.15;11.38;;;;;;;;;;5054670;28;20049;-81
2022/04/11 04:53:56;;;;;;;17.30;8.57;;;;;;;;;;5053120;28;20032;-79
2022/04/11 04:56:22;;;;;;;13.18;7.45;;;;;;;;;;5036806;28;20021;-81
2022/04/11 04:58:49;;;;;;;13.55;8.43;;;;;;;;;;5045339;28;20029;-84
2022/04/11 05:01:15;;;;;;;14.90;7.90;;;;;;;;;;5056543;28;20072;-82
2022/04/11 05:03:42;;;;;;;11.55;6.18;;;;;;;;;;5052542;28;20376;-78
2022/04/11 05:06:08;;;;;;;9.20;4.82;;;;;;;;;;5074599;28;20020;-76
2022/04/11 05:08:34;;;;;;;12.02;5.00;;;;;;;;;;5073410;28;20103;-77
2022/04/11 05:11:01;;;;;;;18.85;7.25;;;;;;;;;;5073259;28;20039;-76
2022/04/11 05:13:27;;;;;;;8.60;4.97;;;;;;;;;;5055451;28;20021;-75
2022/04/11 05:15:53;;;;;;;11.63;5.68;;;;;;;;;;5073305;28;20017;-76
2022/04/11 05:18:19;;;;;;;14.00;7.43;;;;;;;;;;5055468;28;20017;-78
2022/04/11 05:20:45;;;;;;;9.48;5.88;;;;;;;;;;5069278;28;20024;-77
2022/04/11 05:23:11;;;;;;;14.00;5.80;;;;;;;;;;5052855;28;20044;-78
2022/04/11 05:25:37;;;;;;;12.43;6.85;;;;;;;;;;5073065;28;20020;-77
2022/04/11 05:28:03;;;;;;;19.85;8.70;;;;;;;;;;5072845;28;20028;-76
2022/04/11 05:30:35;;;;;;;15.90;4.97;;;;;;;;;;5073570;28;20028;-83
2022/04/11 05:33:02;;;;;;;17.45;5.35;;;;;;;;;;5072919;28;20478;-75
2022/04/11 05:35:28;;;;;;;14.68;4.68;;;;;;;;;;5055234;28;20378;-77
2022/04/11 05:37:57;;;;;;;8.63;6.10;;;;;;;;;;5054881;28;20448;-80
2022/04/11 05:40:23;;;;;;;10.82;3.28;;;;;;;;;;5072871;28;20028;-77
2022/04/11 05:42:49;;;;;;;8.45;4.18;;;;;;;;;;5054598;28;20466;-80
2022/04/11 05:45:15;;;;;;;7.85;3.90;;;;;;;;;;5054905;28;20438;-78
2022/04/11 05:47:41;;;;;;;8.20;3.83;;;;;;;;;;5072677;28;20020;-81
2022/04/11 05:50:08;;;;;;;10.98;5.22;;;;;;;;;;5072685;28;20021;-83
2022/04/11 05:52:34;;;;;;;8.95;3.92;;;;;;;;;;5055289;28;20036;-84
2022/04/11 05:55:00;;;;;;;7.63;3.15;;;;;;;;;;5057929;28;20115;-87
2022/04/11 05:57:26;;;;;;;4.40;2.65;;;;;;;;;;5074006;28;20028;-84
2022/04/11 05:59:52;;;;;;;7.00;3.92;;;;;;;;;;5056267;28;20387;-85
2022/04/11 06:02:18;;;;;;;5.22;3.00;;;;;;;;;;5055913;28;20032;-86
2022/04/11 06:04:44;;;;;;;8.32;4.18;;;;;;;;;;5074049;28;20020;-85
2022/04/11 06:07:10;;;;;;;7.60;3.78;;;;;;;;;;5056232;28;20032;-85
2022/04/11 06:09:36;;;;;;;12.27;3.78;;;;;;;;;;5055190;28;20674;-84
2022/04/11 06:12:03;;;;;;;5.10;3.53;;;;;;;;;;5055486;28;20028;-84
2022/04/11 06:14:29;;;;;;;10.32;3.45;;;;;;;;;;5055769;28;20472;-85
2022/04/11 06:16:55;;;;;;;11.65;4.40;;;;;;;;;;5055510;28;20028;-84
2022/04/11 06:19:21;;;;;;;11.82;5.03;;;;;;;;;;5055125;28;20112;-86
2022/04/11 06:21:47;;;;;;;6.07;3.85;;;;;;;;;;5055427;28;20039;-83
2022/04/11 06:24:13;;;;;;;7.55;3.47;;;;;;;;;;5055136;28;20020;-85
2022/04/11 06:26:39;;;;;;;7.65;4.68;;;;;;;;;;5055235;28;20031;-84
2022/04/11 06:29:05;;;;;;;6.90;3.60;;;;;;;;;;5055067;28;20029;-82
2022/04/11 06:31:31;;;;;;;11.32;4.85;;;;;;;;;;5072972;28;20024;-82
2022/04/11 06:33:57;;;;;;;8.65;4.28;;;;;;;;;;5054123;28;20058;-82
2022/04/11 06:36:23;;;;;;;10.85;3.63;;;;;;;;;;5054532;28;20024;-83
2022/04/11 06:38:49;;;;;;;5.43;3.55;;;;;;;;;;5055049;28;20051;-83
2022/04/11 06:41:15;;;;;;;7.40;3.83;;;;;;;;;;5054929;28;20037;-80
2022/04/11 06:43:41;;;;;;;8.75;3.90;;;;;;;;;;5054751;28;20031;-82
2022/04/11 06:46:07;;;;;;;11.43;5.93;;;;;;;;;;5054505;28;20027;-81
2022/04/11 06:48:33;;;;;;;9.35;4.90;;;;;;;;;;5054751;28;20017;-82
2022/04/11 06:51:00;;;;;;;7.65;3.28;;;;;;;;;;5054435;28;20198;-82
2022/04/11 06:53:26;;;;;;;3.88;2.75;;;;;;;;;;5054688;28;20021;-83
2022/04/11 06:55:52;;;;;;;5.65;4.00;;;;;;;;;;5054458;28;20120;-82
2022/04/11 06:58:18;;;;;;;9.43;4.20;;;;;;;;;;5054455;28;20031;-81
2022/04/11 07:00:45;;;;;;;9.82;4.60;;;;;;;;;;5054285;28;20062;-79
2022/04/11 07:03:11;;;;;;;8.05;4.15;;;;;;;;;;5054248;28;20119;-80
2022/04/11 07:05:38;;;;;;;7.10;4.28;;;;;;;;;;5054303;28;20020;-81
2022/04/11 07:08:04;;;;;;;10.23;5.60;;;;;;;;;;5072090;28;20016;-80
2022/04/11 07:10:31;;;;;;;17.23;7.75;;;;;;;;;;5072568;28;20021;-81
2022/04/11 07:12:57;;;;;;;10.82;6.25;;;;;;;;;;5072277;28;20017;-82
2022/04/11 07:15:23;;;;;;;9.05;3.72;;;;;;;;;;5054266;28;20035;-82
2022/04/11 07:17:49;;;;;;;5.28;3.15;;;;;;;;;;5054041;28;20023;-82
2022/04/11 07:20:16;;;;;;;7.20;4.53;;;;;;;;;;5053874;28;20058;-83
2022/04/11 07:22:42;;;;;;;9.20;5.13;;;;;;;;;;5054319;28;20135;-82
2022/04/11 07:25:09;;;;;;;13.60;7.20;;;;;;;;;;5072092;28;20021;-82
2022/04/11 07:27:35;;;;;;;9.77;4.72;;;;;;;;;;5054248;28;20361;-82
2022/04/11 07:30:01;;;;;;;8.88;4.10;;;;;;;;;;5054146;28;20056;-84
2022/04/11 07:32:27;;;;;;;13.80;5.78;;;;;;;;;;5049495;28;20023;-83
2022/04/11 07:34:53;;;;;;;8.93;4.75;;;;;;;;;;5033988;28;20063;-82
2022/04/11 07:37:19;;;;;;;6.30;2.85;;;;;;;;;;5033856;28;20029;-83
2022/04/11 07:39:45;;;;;;;3.63;2.50;;;;;;;;;;5034066;28;20028;-81
2022/04/11 07:42:11;;;;;;;7.70;4.50;;;;;;;;;;5051882;28;20162;-82
2022/04/11 07:44:37;;;;;;;7.45;3.53;;;;;;;;;;5046963;28;20029;-83
2022/04/11 07:47:03;;;;;;;7.03;3.85;;;;;;;;;;5071692;28;20029;-83
2022/04/11 07:49:30;;;;;;;10.02;5.15;;;;;;;;;;5052694;28;20016;-82
2022/04/11 07:51:56;;;;;;;6.28;3.83;;;;;;;;;;5050209;28;20053;-84
2022/04/11 07:54:22;;;;;;;6.75;3.95;;;;;;;;;;5043328;28;20357;-85
2022/04/11 07:56:48;;;;;;;7.22;4.63;;;;;;;;;;5071967;28;20416;-82
2022/04/11 07:59:15;;;;;;;6.68;3.65;;;;;;;;;;5071819;28;20020;-83
2022/04/11 08:01:41;;;;;;;6.72;3.15;;;;;;;;;;5054021;28;20063;-82
2022/04/11 08:04:07;;;;;;;6.18;3.53;;;;;;;;;;5054101;28;20021;-83
2022/04/11 08:06:34;;;;;;;5.20;3.03;;;;;;;;;;5053755;28;20085;-84
2022/04/11 08:09:00;;;;;;;5.03;2.83;;;;;;;;;;5055037;28;20127;-85
2022/04/11 08:11:26;;;;;;;10.15;3.83;;;;;;;;;;5071983;28;20021;-84
2022/04/11 08:13:52;;;;;;;2.75;1.98;;;;;;;;;;5054060;28;20028;-81
2022/04/11 08:16:18;;;;;;;6.97;3.00;;;;;;;;;;5071535;28;20070;-85
2022/04/11 08:18:44;;;;;;;5.90;2.53;;;;;;;;;;5051681;28;20515;-82
2022/04/11 08:21:10;;;;;;;5.70;2.83;;;;;;;;;;5071911;28;20464;-79
2022/04/11 08:23:36;;;;;;;7.10;3.03;;;;;;;;;;5051376;28;20021;-81
2022/04/11 08:26:03;;;;;;;4.85;2.25;;;;;;;;;;5059445;28;20040;-82
2022/04/11 08:28:29;;;;;;;4.88;2.17;;;;;;;;;;5074806;28;20027;-80
2022/04/11 08:30:55;;;;;;;6.30;2.55;;;;;;;;;;5075027;28;20483;-81
2022/04/11 08:33:21;;;;;;;3.45;2.25;;;;;;;;;;5074793;28;20020;-83
2022/04/11 08:35:47;;;;;;;5.78;2.55;;;;;;;;;;5075031;28;20017;-85
2022/04/11 08:38:13;;;;;;;5.25;3.28;;;;;;;;;;5057557;28;20059;-86
2022/04/11 08:40:40;;;;;;;4.60;2.67;;;;;;;;;;5057620;28;20016;-84
2022/04/11 08:43:06;;;;;;;4.80;2.80;;;;;;;;;;5057328;28;20127;-83
2022/04/11 08:45:32;;;;;;;8.32;3.45;;;;;;;;;;5075240;28;20100;-84
2022/04/11 08:47:58;;;;;;;5.40;3.13;;;;;;;;;;5057504;28;20017;-86
2022/04/11 08:50:25;;;;;;;4.15;1.77;;;;;;;;;;5057484;28;20052;-86
2022/04/11 08:52:51;;;;;;;9.35;3.28;;;;;;;;;;5056452;28;20032;-84
2022/04/11 08:55:18;;;;;;;6.30;3.60;;;;;;;;;;5057074;28;20021;-84
2022/04/11 08:57:44;;;;;;;5.75;2.90;;;;;;;;;;5056802;28;20368;-82
2022/04/11 09:00:13;;;;;;;6.07;3.17;;;;;;;;;;5057117;28;20055;-82
2022/04/11 09:02:39;;;;;;;4.47;2.80;;;;;;;;;;5057023;28;20040;-83
2022/04/11 09:05:06;;;;;;;9.30;2.28;;;;;;;;;;5056922;28;20100;-84
2022/04/11 09:07:50;;;;;;;7.38;2.42;;;;;;;;;;5057018;28;20020;-85
2022/04/11 09:10:23;;;;;;;8.30;3.30;;;;;;;;;;5056846;28;20026;-85
2022/04/11 09:12:53;;;;;;;4.85;1.95;;;;;;;;;;5075823;28;20024;-81
2022/04/11 09:15:20;;;;;;;5.93;3.30;;;;;;;;;;5056519;28;20045;-82
2022/04/11 09:17:46;;;;;;;7.15;4.22;;;;;;;;;;5074540;28;20074;-84
2022/04/11 09:20:21;;;;;;;5.78;2.83;;;;;;;;;;5053241;28;20071;-79
2022/04/11 09:22:47;;;;;;;5.00;2.95;;;;;;;;;;5053077;28;20036;-84
2022/04/11 09:25:18;;;;;;;4.30;2.20;;;;;;;;;;5053276;28;20060;-85
2022/04/11 09:27:45;;;;;;;4.25;2.08;;;;;;;;;;5053160;28;20495;-82
2022/04/11 09:30:17;;;;;;;2.95;1.98;;;;;;;;;;5053266;28;20387;-84
2022/04/11 09:32:53;;;;;;;5.72;2.17;;;;;;;;;;5053559;28;20025;-86
2022/04/11 09:35:23;;;;;;;5.95;2.72;;;;;;;;;;5055607;28;20107;-85
2022/04/11 09:38:04;;;;;;;4.97;2.75;;;;;;;;;;5036458;28;20483;-82
2022/04/11 09:40:30;;;;;;;4.43;2.65;;;;;;;;;;5056185;28;20544;-82
2022/04/11 09:42:59;;;;;;;6.25;3.75;;;;;;;;;;5056059;28;20055;-80
2022/04/11 09:45:25;;;;;;;3.00;2.10;;;;;;;;;;5055494;28;20056;-80
2022/04/11 09:48:02;;;;;;;4.13;2.08;;;;;;;;;;5073653;28;20048;-83
2022/04/11 09:50:29;;;;;;;3.97;2.15;;;;;;;;;;5055775;28;20054;-84
2022/04/11 09:53:06;;;;;;;2.97;1.83;;;;;;;;;;5056054;28;20028;-81
2022/04/11 09:55:33;;;;;;;4.70;2.03;;;;;;;;;;5056091;28;20383;-81
2022/04/11 09:57:59;;;;;;;3.90;2.25;;;;;;;;;;5073705;28;20140;-81
2022/04/11 10:00:26;;;;;;;5.63;2.90;;;;;;;;;;5074039;28;20021;-80
2022/04/11 10:02:52;;;;;;;5.13;2.80;;;;;;;;;;5055909;28;20032;-82
2022/04/11 10:05:18;;;;;;;3.05;2.17;;;;;;;;;;5055147;28;20024;-77
2022/04/11 10:07:45;;;;;;;3.97;2.70;;;;;;;;;;5054877;28;20016;-78
2022/04/11 10:10:15;;;;;;;8.80;2.25;;;;;;;;;;5072879;28;20021;-77
2022/04/11 10:12:42;;;;;;;8.82;4.72;;;;;;;;;;5072802;28;20085;-76
2022/04/11 10:15:09;;;;;;;7.95;2.88;;;;;;;;;;5056852;28;20064;-76
2022/04/11 10:17:35;;;;;;;2.55;1.90;;;;;;;;;;5070985;28;20028;-76
2022/04/11 10:20:01;;;;;;;6.53;3.45;;;;;;;;;;5072130;28;20111;-75
2022/04/11 10:22:28;;;;;;;6.82;3.58;;;;;;;;;;5054769;28;20046;-76
2022/04/11 10:25:06;;;;;;;4.75;3.38;;;;;;;;;;5072430;28;20031;-76
2022/04/11 10:27:32;;;;;;;6.05;2.67;;;;;;;;;;5048226;28;20060;-76
2022/04/11 10:29:59;;;;;;;3.75;2.30;;;;;;;;;;5034443;28;20017;-77
2022/04/11 10:32:29;;;;;;;7.25;4.78;;;;;;;;;;5052664;28;20028;-78
2022/04/11 10:35:05;;;;;;;7.45;4.32;;;;;;;;;;5052138;28;20021;-76
2022/04/11 10:37:40;;;;;;;9.02;3.78;;;;;;;;;;5034044;28;20487;-76
2022/04/11 10:40:21;;;;;;;5.80;2.95;;;;;;;;;;5052063;28;20025;-75
2022/04/11 10:43:08;;;;;;;5.47;2.90;;;;;;;;;;5034118;28;20059;-76
2022/04/11 10:45:40;;;;;;;4.72;3.22;;;;;;;;;;5033081;28;20025;-74
2022/04/11 10:48:07;;;;;;;5.97;3.23;;;;;;;;;;5034167;28;20039;-75
2022/04/11 10:50:36;;;;;;;6.72;3.35;;;;;;;;;;5051878;28;20376;-77
2022/04/11 10:53:07;;;;;;;5.32;3.08;;;;;;;;;;5034172;28;20383;-76
2022/04/11 10:55:33;;;;;;;6.35;2.78;;;;;;;;;;5034081;28;20057;-75
2022/04/11 10:58:00;;;;;;;4.65;2.20;;;;;;;;;;5051698;28;20025;-75
2022/04/11 11:00:35;;;;;;;5.15;2.47;;;;;;;;;;5051578;28;20021;-76
2022/04/11 11:03:01;;;;;;;6.47;3.33;;;;;;;;;;5051764;28;20104;-77
2022/04/11 11:05:44;;;;;;;9.07;3.30;;;;;;;;;;5051774;28;20025;-76
2022/04/11 11:08:10;;;;;;;3.80;2.28;;;;;;;;;;5051669;28;20032;-75
2022/04/11 11:10:45;;;;;;;5.60;3.03;;;;;;;;;;5051654;28;20045;-77
2022/04/11 11:13:27;;;;;;;4.35;3.40;;;;;;;;;;5033691;28;20113;-76
2022/04/11 11:15:57;;;;;;;4.45;2.63;;;;;;;;;;5051836;28;20028;-77
2022/04/11 11:18:24;;;;;;;6.82;3.17;;;;;;;;;;5053688;28;20063;-77
2022/04/11 11:20:55;;;;;;;6.75;2.58;;;;;;;;;;5071397;28;20017;-76
2022/04/11 11:23:23;;;;;;;9.80;3.63;;;;;;;;;;5070642;28;20037;-75
2022/04/11 11:25:50;;;;;;;6.07;3.13;;;;;;;;;;5069981;28;20440;-76
2022/04/11 11:28:16;;;;;;;8.25;3.00;;;;;;;;;;5069860;28;20028;-75
2022/04/11 11:30:43;;;;;;;6.57;3.72;;;;;;;;;;5069451;28;20020;-75
2022/04/11 11:33:12;;;;;;;6.72;3.75;;;;;;;;;;5065576;28;20482;-75
2022/04/11 11:35:49;;;;;;;4.35;2.88;;;;;;;;;;5052738;28;20049;-76
2022/04/11 11:38:15;;;;;;;11.55;6.03;;;;;;;;;;5071358;28;20040;-76
2022/04/11 11:40:43;;;;;;;9.43;3.45;;;;;;;;;;5053106;28;20039;-76
2022/04/11 11:43:13;;;;;;;2.10;1.20;;;;;;;;;;5071143;28;20499;-76
2022/04/11 11:45:41;;;;;;;6.20;3.33;;;307.80;1305.60;;;;;;5053553;28;20519;-76
2022/04/11 11:48:27;;;;;;;4.15;2.25;;;308.00;1331.20;;;;;;5071084;28;20100;-78
2022/04/11 11:50:55;;;;;;;4.80;3.22;;;282.40;1356.80;;;;;;5071316;28;20580;-77
2022/04/11 11:53:22;;;;;;;7.15;2.58;;;282.40;1305.60;;;;;;5071169;28;20028;-76
2022/04/11 11:55:51;;;;;;;6.07;2.78;;;307.70;1305.60;;;;;;5072061;28;20036;-77
2022/04/11 11:58:17;;;;;;;7.50;3.38;;;307.90;1280.00;;;;;;5075366;28;20480;-76
2022/04/11 12:00:50;;;;;;;4.53;1.83;;;332.80;1331.20;;;;;;5075849;28;20031;-76
2022/04/11 12:06:02;;;;;;;3.65;2.38;;;308.10;1305.60;;;;;;5074950;28;20039;-78
2022/04/11 12:08:32;;;;;;;3.30;1.40;;;;;;;;;;5075130;28;20032;-77
2022/04/11 12:11:02;;;;;;;4.55;1.58;;;;;;;;;;5057179;28;20028;-77
2022/04/11 12:13:29;;;;;;;11.15;2.50;;;;;;;;;;5057135;28;20020;-76
2022/04/11 12:16:07;;;;;;;5.65;2.33;;;;;;;;;;5075264;28;20025;-75
2022/04/11 12:18:53;;;;;;;7.00;2.35;;;;;;;;;;5077665;28;20025;-76
2022/04/11 12:21:28;;;;;;;8.63;2.45;;;358.50;1254.40;;;;;;5057731;28;20032;-78
2022/04/11 12:23:53;;;;;;;6.07;3.60;;;332.90;1280.00;;;;;;5057008;28;20028;-76
2022/04/11 12:26:26;;;;;;;2.75;1.60;;;332.80;1305.60;;;;;;5056877;28;20463;-76
2022/04/11 12:28:52;;;;;;;2.22;1.45;;;307.50;1254.40;;;;;;5074940;28;20031;-75
2022/04/11 12:31:18;;;;;;;4.18;2.97;;;;;;;;;;5074769;28;20025;-75
2022/04/11 12:33:49;;;;;;;4.15;2.92;;;308.10;1254.40;;;;;;5074587;28;20100;-76
2022/04/11 12:36:28;;;;;;;5.03;2.53;;;307.50;1280.00;;;;;;5056562;28;20475;-78
2022/04/11 12:39:10;;;;;;;4.55;2.05;;;307.70;1305.60;;;;;;5074507;28;20080;-78
2022/04/11 12:41:47;;;;;;;3.05;1.55;;;307.40;1331.20;;;;;;5056601;28;20045;-77
2022/04/11 12:44:18;;;;;;;3.40;2.50;;;282.50;1305.60;;;;;;5069125;28;20029;-76
2022/04/11 12:46:45;;;;;;;4.47;2.97;;;282.40;1305.60;;;;;;5073212;28;20421;-75
2022/04/11 12:49:18;;;;;;;3.20;2.67;;;307.70;1280.00;;;;;;5073663;28;20054;-75
2022/04/11 12:52:01;;;;;;;3.72;1.95;;;333.10;1280.00;;;;;;5074419;28;20075;-75
2022/04/11 12:54:47;;;;;;;3.38;1.85;;;332.80;1280.00;;;;;;5056101;28;20075;-77
2022/04/11 12:57:28;;;;;;;3.88;1.75;;;307.70;1280.00;;;;;;5074347;28;20024;-74
2022/04/11 12:59:54;;;;;;;5.97;2.78;;;282.50;1254.40;;;;;;5056188;28;20107;-77
2022/04/11 13:02:28;;;;;;;6.72;3.35;;;307.20;1305.60;;;;;;5073228;28;20039;-75
2022/04/11 13:04:55;;;;;;;4.68;2.85;;;;;;;;;;5072699;28;20028;-76
2022/04/11 13:07:22;;;;;;;5.60;3.05;;;;;;;;;;5053720;28;20044;-75
2022/04/11 13:09:47;;;;;;;5.95;3.50;;;307.40;1305.60;;;;;;5072106;28;20016;-75
2022/04/11 13:12:15;;;;;;;3.78;2.53;;;307.70;1280.00;;;;;;5071995;28;20467;-76
2022/04/11 13:14:43;;;;;;;3.60;1.58;;;333.20;1280.00;;;;;;5072256;28;20487;-76
2022/04/11 13:19:56;;;;;;;9.10;3.22;;;307.50;1280.00;;;;;;5073775;28;20051;-75
2022/04/11 13:22:22;;;;;;;6.22;3.60;;;;;;;;;;5075812;28;20040;-76
2022/04/11 13:24:50;;;;;;;8.95;3.63;;;307.20;1280.00;;;;;;5055594;28;20464;-76
2022/04/11 13:27:19;;;;;;;4.20;2.28;;;307.30;1305.60;;;;;;5055623;28;20447;-76
2022/04/11 13:29:46;;;;;;;3.55;1.88;;;282.40;1280.00;;;;;;5073439;28;20075;-77
2022/04/11 13:32:12;;;;;;;4.22;2.45;;;282.50;1305.60;;;;;;5073335;28;20076;-76
2022/04/11 13:34:38;;;;;;;4.20;2.38;;;307.30;1305.60;;;;;;5073534;28;20063;-76
2022/04/11 13:37:05;;;;;;;4.22;2.45;;;282.50;1280.00;;;;;;5073456;28;20024;-76
2022/04/11 13:39:31;;;;;;;3.70;2.80;;;282.40;1254.40;;;;;;5055361;28;20069;-75
2022/04/11 13:41:57;;;;;;;5.72;2.25;;;307.50;1280.00;;;;;;5055251;28;20101;-76
2022/04/11 13:44:23;;;;;;;6.97;2.80;;;307.30;1305.60;;;;;;5073140;28;20025;-77
2022/04/11 13:46:49;;;;;;;7.10;3.95;;;307.60;1280.00;;;;;;5072751;28;20533;-78
2022/04/11 13:49:16;;;;;;;3.15;2.33;;;;;;;;;;5073751;28;20017;-75
2022/04/11 13:51:42;;;;;;;3.65;2.90;;;308.10;1305.60;;;;;;5073653;28;20083;-75
2022/04/11 13:54:09;;;;;;;5.35;3.63;;;307.60;1305.60;;;;;;5073075;28;20071;-75
2022/04/11 13:56:40;;;;;;;9.27;2.92;;;308.10;1280.00;;;;;;5055413;28;20071;-76
2022/04/11 13:59:14;;;;;;;11.30;3.03;;;307.90;1305.60;;;;;;5073025;28;20098;-75
2022/04/11 14:01:42;;;;;;;3.67;2.20;;;307.90;1305.60;;;;;;5072838;28;20549;-75
2022/04/11 14:04:08;;;;;;;5.88;1.90;;;;;;;;;;5073240;28;20020;-74
2022/04/11 14:06:35;;;;;;;8.50;3.17;;;;;;;;;;5073176;28;20031;-75
2022/04/11 14:09:02;;;;;;;6.20;2.83;;;;;;;;;;5055176;28;20542;-75
2022/04/11 14:11:28;;;;;;;5.50;3.47;;;;;;;;;;5072876;28;20043;-75
2022/04/11 14:13:54;;;;;;;6.07;4.10;;;;;;;;;;5072634;28;20071;-75
2022/04/11 14:16:20;;;;;;;5.85;4.25;;;;;;;;;;5073041;28;20028;-77
2022/04/11 14:18:46;;;;;;;7.30;3.20;;;;;;;;;;5071842;28;20104;-77
2022/04/11 14:21:12;;;;;;;3.35;1.95;;;307.90;1305.60;;;;;;5073122;28;20020;-75
2022/04/11 14:23:38;;;;;;;6.35;2.70;;;307.40;1305.60;;;;;;5074496;28;20032;-77
2022/04/11 14:26:04;;;;;;;11.48;4.68;;;;;;;;;;5056663;28;20112;-76